Time;durP1;ratioP1;P1;durP2;ratioP2;P2;SDS_P1;SDS_P2;PMS_P1;PMS_P2;Temp;Humidity;BMP_temperature;BMP_pressure;BME280_temperature;BME280_humidity;BME280_pressure;Samples;Min_cycle;Max_cycle;Signal;HPM_P1;HPM_P2
2023/03/07 00:01:35;;;;;;;;;;;;;;;;;;5096753;28;19960;-70
2023/03/07 00:04:01;;;;;;;;;;;;;;;;;;5096727;28;20316;-70
2023/03/07 00:06:27;;;;;;;;;;;;;;;;;;5096384;28;19953;-70
2023/03/07 00:08:53;;;;;;;;;;;;;;;;;;5096269;28;19975;-70
2023/03/07 00:11:19;;;;;;;;;;;;;;;;;;5096312;28;20024;-70
2023/03/07 00:13:45;;;;;;;;;;;;;;;;;;5096176;28;20464;-70
2023/03/07 00:16:10;;;;;;;;;;;;;;;;;;5096757;28;20044;-72
2023/03/07 00:18:36;;;;;;;;;;;;;;;;;;5096127;28;19959;-70
2023/03/07 00:21:04;;;;;;;;;;;;;;;;;;5096115;28;20424;-70
2023/03/07 00:23:30;;;;;;;;;;;;;;;;;;5096349;28;19956;-70
2023/03/07 00:25:56;;;;;;;;;;;;;;;;;;5095996;28;19953;-71
2023/03/07 00:28:22;;;;;;;;;;;;;;;;;;5096517;28;19971;-70
2023/03/07 00:30:48;;;;;;;;;;;;;;;;;;5095910;28;19979;-71
2023/03/07 00:33:14;;;;;;;;;;;;;;;;;;5095903;28;19954;-70
2023/03/07 00:35:40;;;;;;;;;;;;;;;;;;5096129;28;20049;-70
2023/03/07 00:38:05;;;;;;;;;;;;;;;;;;5096104;28;20006;-71
2023/03/07 00:40:31;;;;;;;;;;;;;;;;;;5095551;28;20461;-70
2023/03/07 00:42:57;;;;;;;;;;;;;;;;;;5095684;28;19961;-71
2023/03/07 00:45:23;;;;;;;;;;;;;;;;;;5095644;28;19956;-71
2023/03/07 00:47:49;;;;;;;;;;;;;;;;;;5095828;28;19954;-70
2023/03/07 00:50:15;;;;;;;;;;;;;;;;;;5095743;28;19978;-71
2023/03/07 00:52:41;;;;;;;;;;;;;;;;;;5095540;28;19960;-70
2023/03/07 00:55:07;;;;;;;;;;;;;;;;;;5095688;28;20062;-70
2023/03/07 00:57:32;;;;;;;;;;;;;;;;;;5095394;28;19954;-70
2023/03/07 00:59:58;;;;;;;;;;;;;;;;;;5095616;28;19958;-69
2023/03/07 01:02:24;;;;;;;;;;;;;;;;;;5095321;28;19953;-72
2023/03/07 01:04:50;;;;;;;;;;;;;;;;;;5095818;28;20363;-70
2023/03/07 01:07:16;;;;;;;;;;;;;;;;;;5095501;28;19961;-70
2023/03/07 01:09:42;;;;;;;;;;;;;;;;;;5095658;28;20329;-70
2023/03/07 01:12:08;;;;;;;;;;;;;;;;;;5095116;28;19959;-71
2023/03/07 01:14:34;;;;;;;;;;;;;;;;;;5094972;28;19976;-70
2023/03/07 01:17:00;;;;;;;;;;;;;;;;;;5095264;28;20345;-71
2023/03/07 01:19:26;;;;;;;;;;;;;;;;;;5095238;28;20086;-70
2023/03/07 01:21:51;;;;;;;;;;;;;;;;;;5095188;28;19952;-70
2023/03/07 01:24:17;;;;;;;;;;;;;;;;;;5095139;28;19953;-71
2023/03/07 01:26:43;;;;;;;;;;;;;;;;;;5094836;28;19952;-72
2023/03/07 01:29:09;;;;;;;;;;;;;;;;;;5094993;28;20001;-71
2023/03/07 01:31:35;;;;;;;;;;;;;;;;;;5094723;28;20348;-70
2023/03/07 01:34:01;;;;;;;;;;;;;;;;;;5094955;28;19960;-71
2023/03/07 01:36:28;;;;;;;;;;;;;;;;;;5094622;28;19977;-70
2023/03/07 01:38:54;;;;;;;;;;;;;;;;;;5094622;28;19953;-70
2023/03/07 01:41:20;;;;;;;;;;;;;;;;;;5094175;28;20010;-70
2023/03/07 01:43:46;;;;;;;;;;;;;;;;;;5094783;28;20043;-69
2023/03/07 01:46:12;;;;;;;;;;;;;;;;;;5094460;28;19957;-70
2023/03/07 01:48:38;;;;;;;;;;;;;;;;;;5094452;28;19954;-70
2023/03/07 01:51:04;;;;;;;;;;;;;;;;;;5094052;28;20443;-70
2023/03/07 01:53:29;;;;;;;;;;;;;;;;;;5094128;28;19961;-70
2023/03/07 01:55:56;;;;;;;;;;;;;;;;;;5094829;28;20437;-70
2023/03/07 01:58:22;;;;;;;;;;;;;;;;;;5094558;28;19952;-71
2023/03/07 02:00:48;;;;;;;;;;;;;;;;;;5094788;28;19959;-70
2023/03/07 02:03:14;;;;;;;;;;;;;;;;;;5094176;28;19975;-70
2023/03/07 02:05:40;;;;;;;;;;;;;;;;;;5094428;28;19958;-70
2023/03/07 02:08:06;;;;;;;;;;;;;;;;;;5094085;28;20338;-69
2023/03/07 02:10:32;;;;;;;;;;;;;;;;;;5094024;28;19977;-70
2023/03/07 02:12:57;;;;;;;;;;;;;;;;;;5093995;28;19954;-71
2023/03/07 02:15:23;;;;;;;;;;;;;;;;;;5093921;28;20001;-70
2023/03/07 02:17:49;;;;;;;;;;;;;;;;;;5094193;28;19976;-70
2023/03/07 02:20:16;;;;;;;;;;;;;;;;;;5094215;28;19960;-70
2023/03/07 02:22:42;;;;;;;;;;;;;;;;;;5093943;28;19955;-70
2023/03/07 02:25:08;;;;;;;;;;;;;;;;;;5093930;28;20459;-70
2023/03/07 02:27:35;;;;;;;;;;;;;;;;;;5093859;28;19951;-71
2023/03/07 02:30:00;;;;;;;;;;;;;;;;;;5094317;28;20017;-71
2023/03/07 02:32:26;;;;;;;;;;;;;;;;;;5094001;28;19963;-70
2023/03/07 02:34:52;;;;;;;;;;;;;;;;;;5093779;28;20411;-72
2023/03/07 02:37:18;;;;;;;;;;;;;;;;;;5093775;28;20426;-69
2023/03/07 02:39:44;;;;;;;;;;;;;;;;;;5093962;28;20469;-69
2023/03/07 02:42:10;;;;;;;;;;;;;;;;;;5093991;28;19953;-71
2023/03/07 02:44:36;;;;;;;;;;;;;;;;;;5093657;28;20443;-72
2023/03/07 02:47:02;;;;;;;;;;;;;;;;;;5093646;28;19950;-69
2023/03/07 02:49:27;;;;;;;;;;;;;;;;;;5093509;28;20020;-70
2023/03/07 02:51:57;;;;;;;;;;;;;;;;;;5093576;28;19999;-69
2023/03/07 02:54:24;;;;;;;;;;;;;;;;;;5093829;28;20003;-70
2023/03/07 02:56:49;;;;;;;;;;;;;;;;;;5093527;28;19993;-71
2023/03/07 02:59:15;;;;;;;;;;;;;;;;;;5093523;28;19957;-70
2023/03/07 03:01:41;;;;;;;;;;;;;;;;;;5094047;28;19958;-71
2023/03/07 03:04:07;;;;;;;;;;;;;;;;;;5094784;28;19954;-70
2023/03/07 03:06:33;;;;;;;;;;;;;;;;;;5097806;28;19953;-70
2023/03/07 03:08:59;;;;;;;;;;;;;;;;;;5097682;28;19954;-70
2023/03/07 03:11:25;;;;;;;;;;;;;;;;;;5098054;28;19963;-71
2023/03/07 03:13:51;;;;;;;;;;;;;;;;;;5097357;28;19972;-70
2023/03/07 03:16:17;;;;;;;;;;;;;;;;;;5097634;28;19951;-71
2023/03/07 03:18:43;;;;;;;;;;;;;;;;;;5097593;28;19960;-71
2023/03/07 03:21:08;;;;;;;;;;;;;;;;;;5097277;28;19960;-70
2023/03/07 03:23:35;;;;;;;;;;;;;;;;;;5097237;28;19961;-72
2023/03/07 03:26:01;;;;;;;;;;;;;;;;;;5097491;28;19997;-70
2023/03/07 03:28:27;;;;;;;;;;;;;;;;;;5097102;28;19953;-70
2023/03/07 03:30:53;;;;;;;;;;;;;;;;;;5097041;28;19974;-70
2023/03/07 03:33:19;;;;;;;;;;;;;;;;;;5097020;28;20317;-71
2023/03/07 03:35:45;;;;;;;;;;;;;;;;;;5097256;28;19955;-70
2023/03/07 03:38:11;;;;;;;;;;;;;;;;;;5096928;28;20003;-70
2023/03/07 03:40:37;;;;;;;;;;;;;;;;;;5096965;28;20492;-70
2023/03/07 03:43:03;;;;;;;;;;;;;;;;;;5097161;28;19953;-70
2023/03/07 03:45:29;;;;;;;;;;;;;;;;;;5096768;28;20366;-70
2023/03/07 03:47:55;;;;;;;;;;;;;;;;;;5097029;28;20013;-70
2023/03/07 03:50:21;;;;;;;;;;;;;;;;;;5096641;28;20357;-70
2023/03/07 03:52:46;;;;;;;;;;;;;;;;;;5096691;28;19955;-70
2023/03/07 03:55:12;;;;;;;;;;;;;;;;;;5096872;28;20030;-71
2023/03/07 03:57:38;;;;;;;;;;;;;;;;;;5096880;28;19988;-70
2023/03/07 04:00:04;;;;;;;;;;;;;;;;;;5097097;28;19952;-70
2023/03/07 04:02:32;;;;;;;;;;;;;;;;;;5096444;28;19954;-71
2023/03/07 04:04:57;;;;;;;;;;;;;;;;;;5078263;28;20483;-71
2023/03/07 04:07:27;;;;;;;;;;;;;;;;;;5096620;28;19956;-70
2023/03/07 04:09:53;;;;;;;;;;;;;;;;;;5096242;28;20430;-70
2023/03/07 04:12:19;;;;;;;;;;;;;;;;;;5096846;28;20043;-70
2023/03/07 04:14:45;;;;;;;;;;;;;;;;;;5095652;28;20437;-70
2023/03/07 04:17:11;;;;;;;;;;;;;;;;;;5096767;28;19958;-70
2023/03/07 04:19:37;;;;;;;;;;;;;;;;;;5096397;28;19950;-71
2023/03/07 04:22:03;;;;;;;;;;;;;;;;;;5096391;28;19952;-70
2023/03/07 04:24:29;;;;;;;;;;;;;;;;;;5096301;28;20094;-70
2023/03/07 04:26:55;;;;;;;;;;;;;;;;;;5096047;28;19954;-70
2023/03/07 04:29:21;;;;;;;;;;;;;;;;;;5095914;28;19974;-70
2023/03/07 04:31:46;;;;;;;;;;;;;;;;;;5077773;28;20334;-70
2023/03/07 04:34:12;;;;;;;;;;;;;;;;;;5096426;28;19958;-70
2023/03/07 04:36:38;;;;;;;;;;;;;;;;;;5095814;28;19953;-70
2023/03/07 04:39:04;;;;;;;;;;;;;;;;;;5095758;28;19996;-71
2023/03/07 04:41:31;;;;;;;;;;;;;;;;;;5095359;28;20087;-70
2023/03/07 04:43:57;;;;;;;;;;;;;;;;;;5096275;28;19968;-70
2023/03/07 04:46:23;;;;;;;;;;;;;;;;;;5095643;28;20020;-70
2023/03/07 04:48:48;;;;;;;;;;;;;;;;;;5096178;28;20348;-70
2023/03/07 04:51:14;;;;;;;;;;;;;;;;;;5095738;28;19969;-71
2023/03/07 04:53:40;;;;;;;;;;;;;;;;;;5095530;28;20302;-71
2023/03/07 04:56:07;;;;;;;;;;;;;;;;;;5095711;28;20095;-70
2023/03/07 04:58:32;;;;;;;;;;;;;;;;;;5095400;28;20012;-70
2023/03/07 05:00:58;;;;;;;;;;;;;;;;;;5095471;28;20481;-70
2023/03/07 05:03:25;;;;;;;;;;;;;;;;;;5095729;28;19954;-70
2023/03/07 05:05:50;;;;;;;;;;;;;;;;;;5095363;28;19964;-70
2023/03/07 05:08:16;;;;;;;;;;;;;;;;;;5095702;28;19954;-70
2023/03/07 05:10:42;;;;;;;;;;;;;;;;;;5095099;28;20051;-70
2023/03/07 05:13:09;;;;;;;;;;;;;;;;;;5095120;28;19987;-70
2023/03/07 05:15:35;;;;;;;;;;;;;;;;;;5094996;28;19974;-70
2023/03/07 05:18:01;;;;;;;;;;;;;;;;;;5095013;28;20005;-70
2023/03/07 05:20:28;;;;;;;;;;;;;;;;;;5095016;28;19951;-70
2023/03/07 05:22:54;;;;;;;;;;;;;;;;;;5094981;28;19976;-70
2023/03/07 05:25:21;;;;;;;;;;;;;;;;;;5095442;28;20394;-70
2023/03/07 05:27:47;;;;;;;;;;;;;;;;;;5094013;28;19954;-70
2023/03/07 05:30:13;;;;;;;;;;;;;;;;;;5094997;28;19973;-70
2023/03/07 05:32:39;;;;;;;;;;;;;;;;;;5094729;28;20041;-70
2023/03/07 05:35:05;;;;;;;;;;;;;;;;;;5094972;28;19954;-70
2023/03/07 05:37:30;;;;;;;;;;;;;;;;;;5094642;28;19961;-69
2023/03/07 05:39:56;;;;;;;;;;;;;;;;;;5094875;28;20345;-70
2023/03/07 05:42:22;;;;;;;;;;;;;;;;;;5094570;28;19961;-70
2023/03/07 05:44:48;;;;;;;;;;;;;;;;;;5094521;28;20390;-70
2023/03/07 05:47:14;;;;;;;;;;;;;;;;;;5095106;28;20048;-70
2023/03/07 05:49:40;;;;;;;;;;;;;;;;;;5076150;28;19983;-70
2023/03/07 05:52:06;;;;;;;;;;;;;;;;;;5094335;28;19996;-70
2023/03/07 05:54:32;;;;;;;;;;;;;;;;;;5094368;28;19953;-71
2023/03/07 05:56:58;;;;;;;;;;;;;;;;;;5094587;28;20437;-70
2023/03/07 05:59:26;;;;;;;;;;;;;;;;;;5094839;28;19952;-71
2023/03/07 06:01:51;;;;;;;;;;;;;;;;;;5094603;28;20014;-70
2023/03/07 06:04:17;;;;;;;;;;;;;;;;;;5094238;28;19958;-69
2023/03/07 06:06:43;;;;;;;;;;;;;;;;;;5094185;28;20376;-70
2023/03/07 06:09:09;;;;;;;;;;;;;;;;;;5094279;28;19961;-70
2023/03/07 06:11:35;;;;;;;;;;;;;;;;;;5075699;28;19959;-71
2023/03/07 06:14:01;;;;;;;;;;;;;;;;;;5094508;28;19969;-70
2023/03/07 06:16:27;;;;;;;;;;;;;;;;;;5094027;28;19954;-71
2023/03/07 06:18:53;;;;;;;;;;;;;;;;;;5094259;28;20007;-70
2023/03/07 06:21:19;;;;;;;;;;;;;;;;;;5094509;28;19953;-70
2023/03/07 06:23:44;;;;;;;;;;;;;;;;;;5094179;28;19956;-70
2023/03/07 06:26:11;;;;;;;;;;;;;;;;;;5093944;28;20322;-70
2023/03/07 06:28:37;;;;;;;;;;;;;;;;;;5093793;28;19958;-70
2023/03/07 06:31:03;;;;;;;;;;;;;;;;;;5093739;28;19971;-70
2023/03/07 06:33:29;;;;;;;;;;;;;;;;;;5094336;28;20343;-70
2023/03/07 06:35:55;;;;;;;;;;;;;;;;;;5094049;28;20001;-71
2023/03/07 06:38:20;;;;;;;;;;;;;;;;;;5094070;28;19955;-71
2023/03/07 06:40:46;;;;;;;;;;;;;;;;;;5093602;28;20370;-70
2023/03/07 06:43:12;;;;;;;;;;;;;;;;;;5093970;28;19960;-70
2023/03/07 06:45:38;;;;;;;;;;;;;;;;;;5093685;28;20010;-70
2023/03/07 06:48:04;;;;;;;;;;;;;;;;;;5094179;28;20394;-70
2023/03/07 06:50:30;;;;;;;;;;;;;;;;;;5093829;28;20028;-70
2023/03/07 06:52:56;;;;;;;;;;;;;;;;;;5093903;28;20339;-71
2023/03/07 06:55:22;;;;;;;;;;;;;;;;;;5093582;28;19955;-71
2023/03/07 06:57:48;;;;;;;;;;;;;;;;;;5093606;28;20103;-70
2023/03/07 07:00:13;;;;;;;;;;;;;;;;;;5093798;28;19952;-71
2023/03/07 07:02:39;;;;;;;;;;;;;;;;;;5093558;28;20410;-71
2023/03/07 07:05:05;;;;;;;;;;;;;;;;;;5094020;28;19963;-72
2023/03/07 07:07:31;;;;;;;;;;;;;;;;;;5093748;28;19959;-70
2023/03/07 07:09:58;;;;;;;;;;;;;;;;;;5093388;28;19974;-70
2023/03/07 07:12:24;;;;;;;;;;;;;;;;;;5094100;28;19955;-70
2023/03/07 07:14:50;;;;;;;;;;;;;;;;;;5093235;28;19972;-71
2023/03/07 07:17:16;;;;;;;;;;;;;;;;;;5093377;28;19963;-71
2023/03/07 07:19:42;;;;;;;;;;;;;;;;;;5093615;28;20048;-70
2023/03/07 07:22:10;;;;;;;;;;;;;;;;;;5093332;28;19997;-70
2023/03/07 07:24:36;;;;;;;;;;;;;;;;;;5093570;28;20367;-72
2023/03/07 07:27:02;;;;;;;;;;;;;;;;;;5093828;28;20040;-72
2023/03/07 07:29:28;;;;;;;;;;;;;;;;;;5093463;28;19985;-71
2023/03/07 07:31:54;;;;;;;;;;;;;;;;;;5093535;28;19959;-70
2023/03/07 07:34:20;;;;;;;;;;;;;;;;;;5093198;28;19958;-72
2023/03/07 07:36:46;;;;;;;;;;;;;;;;;;5093180;28;19998;-71
2023/03/07 07:39:12;;;;;;;;;;;;;;;;;;5093156;28;19953;-71
2023/03/07 07:41:37;;;;;;;;;;;;;;;;;;5092987;28;20485;-69
2023/03/07 07:44:03;;;;;;;;;;;;;;;;;;5093186;28;19952;-71
2023/03/07 07:46:29;;;;;;;;;;;;;;;;;;5093109;28;20407;-71
2023/03/07 07:48:55;;;;;;;;;;;;;;;;;;5093115;28;19986;-70
2023/03/07 07:51:21;;;;;;;;;;;;;;;;;;5096372;28;19972;-70
2023/03/07 07:53:47;;;;;;;;;;;;;;;;;;5097237;28;20007;-70
2023/03/07 07:56:13;;;;;;;;;;;;;;;;;;5096664;28;19961;-70
2023/03/07 07:58:39;;;;;;;;;;;;;;;;;;5096622;28;19952;-71
2023/03/07 08:01:05;;;;;;;;;;;;;;;;;;5096848;28;19957;-72
2023/03/07 08:03:31;;;;;;;;;;;;;;;;;;5096550;28;19953;-70
2023/03/07 08:05:57;;;;;;;;;;;;;;;;;;5097066;28;19961;-70
2023/03/07 08:08:23;;;;;;;;;;;;;;;;;;5096406;28;19957;-70
2023/03/07 08:10:49;;;;;;;;;;;;;;;;;;5096301;28;20020;-71
2023/03/07 08:13:14;;;;;;;;;;;;;;;;;;5096644;28;19959;-71
2023/03/07 08:15:40;;;;;;;;;;;;;;;;;;5096284;28;20001;-70
2023/03/07 08:18:07;;;;;;;;;;;;;;;;;;5096795;28;20005;-70
2023/03/07 08:20:32;;;;;;;;;;;;;;;;;;5096474;28;19962;-70
2023/03/07 08:22:58;;;;;;;;;;;;;;;;;;5096126;28;20363;-70
2023/03/07 08:25:24;;;;;;;;;;;;;;;;;;5096142;28;19954;-72
2023/03/07 08:27:53;;;;;;;;;;;;;;;;;;5096031;28;19963;-71
2023/03/07 08:30:19;;;;;;;;;;;;;;;;;;5095808;28;19973;-70
2023/03/07 08:32:45;;;;;;;;;;;;;;;;;;5095864;28;20310;-68
2023/03/07 08:35:11;;;;;;;;;;;;;;;;;;5096282;28;19955;-68
2023/03/07 08:37:38;;;;;;;;;;;;;;;;;;5096096;28;20043;-68
2023/03/07 08:40:04;;;;;;;;;;;;;;;;;;5095865;28;19993;-68
2023/03/07 08:42:32;;;;;;;;;;;;;;;;;;5095018;28;21518;-69
2023/03/07 08:44:58;;;;;;;;;;;;;;;;;;5095912;28;19955;-69
2023/03/07 08:47:23;;;;;;;;;;;;;;;;;;5077513;28;19958;-68
2023/03/07 08:49:49;;;;;;;;;;;;;;;;;;5096092;28;20078;-68
2023/03/07 08:52:15;;;;;;;;;;;;;;;;;;5095799;28;19997;-68
2023/03/07 08:54:41;;;;;;;;;;;;;;;;;;5096003;28;19954;-69
2023/03/07 08:57:07;;;;;;;;;;;;;;;;;;5095474;28;20000;-68
2023/03/07 08:59:33;;;;;;;;;;;;;;;;;;5095375;28;19960;-68
2023/03/07 09:01:59;;;;;;;;;;;;;;;;;;5095347;28;19954;-71
2023/03/07 09:04:25;;;;;;;;;;;;;;;;;;5095630;28;19993;-68
2023/03/07 09:06:50;;;;;;;;;;;;;;;;;;5095304;28;19973;-68
2023/03/07 09:09:16;;;;;;;;;;;;;;;;;;5095284;28;19954;-69
2023/03/07 09:11:42;;;;;;;;;;;;;;;;;;5095179;28;20324;-67
2023/03/07 09:14:08;;;;;;;;;;;;;;;;;;5095069;28;19976;-70
2023/03/07 09:16:34;;;;;;;;;;;;;;;;;;5094981;28;20004;-70
2023/03/07 09:19:00;;;;;;;;;;;;;;;;;;5095061;28;20051;-67
2023/03/07 09:21:26;;;;;;;;;;;;;;;;;;5095225;28;20055;-67
2023/03/07 09:23:52;;;;;;;;;;;;;;;;;;5094969;28;19953;-69
2023/03/07 09:26:18;;;;;;;;;;;;;;;;;;5094895;28;19956;-71
2023/03/07 09:28:44;;;;;;;;;;;;;;;;;;5095231;28;19955;-68
2023/03/07 09:31:10;;;;;;;;;;;;;;;;;;5095190;28;20388;-68
2023/03/07 09:33:35;;;;;;;;;;;;;;;;;;5094653;28;19957;-69
2023/03/07 09:36:01;;;;;;;;;;;;;;;;;;5094966;28;19959;-73
2023/03/07 09:38:27;;;;;;;;;;;;;;;;;;5094906;28;20405;-68
2023/03/07 09:40:53;;;;;;;;;;;;;;;;;;5094585;28;19988;-68
2023/03/07 09:43:19;;;;;;;;;;;;;;;;;;5094576;28;19954;-69
2023/03/07 09:45:45;;;;;;;;;;;;;;;;;;5094552;28;20042;-69
2023/03/07 09:48:11;;;;;;;;;;;;;;;;;;5094784;28;19955;-68
2023/03/07 09:50:37;;;;;;;;;;;;;;;;;;5094982;28;19980;-68
2023/03/07 09:53:03;;;;;;;;;;;;;;;;;;5094935;28;19957;-69
2023/03/07 09:55:28;;;;;;;;;;;;;;;;;;5094555;28;20416;-72
2023/03/07 09:57:54;;;;;;;;;;;;;;;;;;5094555;28;20054;-68
2023/03/07 10:00:20;;;;;;;;;;;;;;;;;;5094907;28;19959;-71
2023/03/07 10:02:46;;;;;;;;;;;;;;;;;;5094256;28;19947;-71
2023/03/07 10:05:12;;;;;;;;;;;;;;;;;;5094745;28;20347;-70
2023/03/07 10:07:38;;;;;;;;;;;;;;;;;;5094522;28;20403;-72
2023/03/07 10:10:04;;;;;;;;;;;;;;;;;;5094417;28;20017;-71
2023/03/07 10:12:31;;;;;;;;;;;;;;;;;;5093636;28;19959;-69
2023/03/07 10:14:57;;;;;;;;;;;;;;;;;;5094274;28;19971;-72
2023/03/07 10:17:22;;;;;;;;;;;;;;;;;;5094011;28;20472;-71
2023/03/07 10:19:48;;;;;;;;;;;;;;;;;;5093997;28;19953;-70
2023/03/07 10:22:14;;;;;;;;;;;;;;;;;;5093747;28;20321;-70
2023/03/07 10:24:41;;;;;;;;;;;;;;;;;;5103275;28;20331;-68
2023/03/07 10:27:07;;;;;;;;;;;;;;;;;;5114263;28;20035;-67
2023/03/07 10:29:33;;;;;;;;;;;;;;;;;;5114296;28;19992;-69
2023/03/07 10:31:58;;;;;;;;;;;;;;;;;;5114145;28;19951;-69
2023/03/07 10:34:24;;;;;;;;;;;;;;;;;;5114141;28;20005;-70
2023/03/07 10:36:50;;;;;;;;;;;;;;;;;;5114135;28;19984;-70
2023/03/07 10:39:16;;;;;;;;;;;;;;;;;;5114453;28;19952;-69
2023/03/07 10:41:42;;;;;;;;;;;;;;;;;;5093651;28;20463;-68
2023/03/07 10:44:08;;;;;;;;;;;;;;;;;;5093835;28;20001;-70
2023/03/07 10:46:34;;;;;;;;;;;;;;;;;;5080583;28;19967;-69
2023/03/07 10:49:00;;;;;;;;;;;;;;;;;;5073405;28;19954;-71
2023/03/07 10:51:26;;;;;;;;;;;;;;;;;;5073601;28;19976;-70
2023/03/07 10:53:52;;;;;;;;;;;;;;;;;;5073407;28;20332;-71
2023/03/07 10:56:18;;;;;;;;;;;;;;;;;;5073599;28;20008;-69
2023/03/07 10:58:43;;;;;;;;;;;;;;;;;;5073289;28;19958;-68
2023/03/07 11:01:09;;;;;;;;;;;;;;;;;;5073856;28;20048;-70
2023/03/07 11:03:35;;;;;;;;;;;;;;;;;;5073523;28;19962;-69
2023/03/07 11:06:01;;;;;;;;;;;;;;;;;;5073310;28;20006;-69
2023/03/07 11:08:27;;;;;;;;;;;;;;;;;;5073544;28;19957;-69
2023/03/07 11:10:53;;;;;;;;;;;;;;;;;;5073102;28;19997;-69
2023/03/07 11:13:19;;;;;;;;;;;;;;;;;;5073666;28;20402;-68
2023/03/07 11:15:45;;;;;;;;;;;;;;;;;;5073087;28;20363;-69
2023/03/07 11:18:11;;;;;;;;;;;;;;;;;;5073115;28;20051;-70
2023/03/07 11:20:37;;;;;;;;;;;;;;;;;;5073074;28;20399;-69
2023/03/07 11:23:03;;;;;;;;;;;;;;;;;;5073155;28;19960;-67
2023/03/07 11:25:29;;;;;;;;;;;;;;;;;;5074921;28;19957;-71
2023/03/07 11:27:54;;;;;;;;;;;;;;;;;;5076910;28;19952;-69
2023/03/07 11:30:21;;;;;;;;;;;;;;;;;;5076141;28;19973;-68
2023/03/07 11:32:46;;;;;;;;;;;;;;;;;;5075504;28;19959;-68
2023/03/07 11:35:12;;;;;;;;;;;;;;;;;;5076347;28;19954;-68
2023/03/07 11:37:38;;;;;;;;;;;;;;;;;;5075861;28;20009;-68
2023/03/07 11:40:04;;;;;;;;;;;;;;;;;;5083002;28;20340;-68
2023/03/07 11:42:30;;;;;;;;;;;;;;;;;;5096973;28;19953;-69
2023/03/07 11:44:56;;;;;;;;;;;;;;;;;;5097112;28;19956;-68
2023/03/07 11:47:22;;;;;;;;;;;;;;;;;;5096863;28;19946;-68
2023/03/07 11:49:48;;;;;;;;;;;;;;;;;;5096987;28;20017;-69
2023/03/07 11:52:14;;;;;;;;;;;;;;;;;;5097006;28;20036;-69
2023/03/07 11:54:40;;;;;;;;;;;;;;;;;;5078577;28;20336;-69
2023/03/07 11:57:06;;;;;;;;;;;;;;;;;;5096676;28;19958;-69
2023/03/07 11:59:32;;;;;;;;;;;;;;;;;;5096613;28;19969;-68
2023/03/07 12:01:58;;;;;;;;;;;;;;;;;;5096804;28;20002;-68
2023/03/07 12:04:24;;;;;;;;;;;;;;;;;;5096583;28;20401;-69
2023/03/07 12:06:50;;;;;;;;;;;;;;;;;;5096807;28;20037;-68
2023/03/07 12:09:16;;;;;;;;;;;;;;;;;;5096690;28;20000;-68
2023/03/07 12:11:42;;;;;;;;;;;;;;;;;;5096935;28;19962;-68
2023/03/07 12:14:08;;;;;;;;;;;;;;;;;;5096254;28;19968;-68
2023/03/07 12:16:34;;;;;;;;;;;;;;;;;;5096256;28;19958;-69
2023/03/07 12:19:00;;;;;;;;;;;;;;;;;;5096239;28;19953;-69
2023/03/07 12:21:25;;;;;;;;;;;;;;;;;;5096500;28;19962;-69
2023/03/07 12:23:51;;;;;;;;;;;;;;;;;;5096143;28;19952;-68
2023/03/07 12:26:17;;;;;;;;;;;;;;;;;;5096415;28;20307;-69
2023/03/07 12:28:43;;;;;;;;;;;;;;;;;;5096090;28;19957;-68
2023/03/07 12:31:09;;;;;;;;;;;;;;;;;;5096262;28;19970;-69
2023/03/07 12:33:35;;;;;;;;;;;;;;;;;;5095893;28;19949;-68
2023/03/07 12:36:01;;;;;;;;;;;;;;;;;;5095784;28;20359;-68
2023/03/07 12:38:27;;;;;;;;;;;;;;;;;;5095840;28;19953;-68
2023/03/07 12:40:55;;;;;;;;;;;;;;;;;;5095720;28;19989;-69
2023/03/07 12:43:21;;;;;;;;;;;;;;;;;;5096056;28;20369;-68
2023/03/07 12:45:47;;;;;;;;;;;;;;;;;;5096279;28;19958;-68
2023/03/07 12:48:12;;;;;;;;;;;;;;;;;;5095712;28;20429;-69
2023/03/07 12:50:39;;;;;;;;;;;;;;;;;;5095505;28;19996;-69
2023/03/07 12:53:05;;;;;;;;;;;;;;;;;;5095576;28;19964;-69
2023/03/07 12:55:31;;;;;;;;;;;;;;;;;;5095815;28;19954;-68
2023/03/07 12:57:57;;;;;;;;;;;;;;;;;;5095449;28;19974;-68
2023/03/07 13:00:23;;;;;;;;;;;;;;;;;;5095410;28;19952;-68
2023/03/07 13:02:48;;;;;;;;;;;;;;;;;;5095454;28;20002;-68
2023/03/07 13:05:14;;;;;;;;;;;;;;;;;;5095593;28;19952;-68
2023/03/07 13:07:40;;;;;;;;;;;;;;;;;;5095287;28;20045;-69
2023/03/07 13:10:09;;;;;;;;;;;;;;;;;;5095165;28;20451;-68
2023/03/07 13:12:35;;;;;;;;;;;;;;;;;;5094841;28;20423;-68
2023/03/07 13:15:00;;;;;;;;;;;;;;;;;;5095228;28;19968;-68
2023/03/07 13:17:26;;;;;;;;;;;;;;;;;;5095053;28;20321;-68
2023/03/07 13:19:53;;;;;;;;;;;;;;;;;;5094980;28;20421;-68
2023/03/07 13:22:19;;;;;;;;;;;;;;;;;;5095001;28;20365;-68
2023/03/07 13:24:45;;;;;;;;;;;;;;;;;;5095441;28;19960;-68
2023/03/07 13:27:11;;;;;;;;;;;;;;;;;;5076728;28;20003;-68
2023/03/07 13:29:37;;;;;;;;;;;;;;;;;;5095060;28;19957;-68
2023/03/07 13:32:03;;;;;;;;;;;;;;;;;;5094875;28;20361;-67
2023/03/07 13:34:29;;;;;;;;;;;;;;;;;;5094816;28;19961;-67
2023/03/07 13:36:55;;;;;;;;;;;;;;;;;;5095297;28;20376;-68
2023/03/07 13:39:21;;;;;;;;;;;;;;;;;;5094798;28;19957;-68
2023/03/07 13:41:47;;;;;;;;;;;;;;;;;;5094644;28;20328;-68
2023/03/07 13:44:13;;;;;;;;;;;;;;;;;;5094621;28;20025;-68
2023/03/07 13:46:38;;;;;;;;;;;;;;;;;;5094736;28;19954;-68
2023/03/07 13:49:04;;;;;;;;;;;;;;;;;;5093832;28;20047;-69
2023/03/07 13:51:30;;;;;;;;;;;;;;;;;;5094648;28;19971;-67
2023/03/07 13:53:56;;;;;;;;;;;;;;;;;;5094403;28;20005;-69
2023/03/07 13:56:26;;;;;;;;;;;;;;;;;;5094362;28;19959;-68
2023/03/07 13:58:52;;;;;;;;;;;;;;;;;;5094579;28;19956;-69
2023/03/07 14:01:18;;;;;;;;;;;;;;;;;;5094315;28;19958;-69
2023/03/07 14:03:43;;;;;;;;;;;;;;;;;;5094765;28;19953;-68
2023/03/07 14:06:09;;;;;;;;;;;;;;;;;;5094458;28;20001;-68
2023/03/07 14:08:35;;;;;;;;;;;;;;;;;;5094047;28;20445;-68
2023/03/07 14:11:01;;;;;;;;;;;;;;;;;;5094212;28;19972;-69
2023/03/07 14:13:28;;;;;;;;;;;;;;;;;;5093989;28;19953;-68
2023/03/07 14:15:54;;;;;;;;;;;;;;;;;;5094305;28;19960;-69
2023/03/07 14:18:20;;;;;;;;;;;;;;;;;;5094491;28;20461;-68
2023/03/07 14:20:45;;;;;;;;;;;;;;;;;;5093953;28;19957;-69
2023/03/07 14:23:11;;;;;;;;;;;;;;;;;;5094463;28;20372;-68
2023/03/07 14:25:37;;;;;;;;;;;;;;;;;;5093710;28;19952;-68
2023/03/07 14:28:04;;;;;;;;;;;;;;;;;;5093749;28;20316;-68
2023/03/07 14:30:30;;;;;;;;;;;;;;;;;;5093780;28;19973;-68
2023/03/07 14:32:56;;;;;;;;;;;;;;;;;;5093997;28;20331;-68
2023/03/07 14:35:22;;;;;;;;;;;;;;;;;;5093816;28;19954;-68
2023/03/07 14:37:48;;;;;;;;;;;;;;;;;;5093770;28;20043;-68
2023/03/07 14:40:13;;;;;;;;;;;;;;;;;;5094039;28;19992;-69
2023/03/07 14:42:39;;;;;;;;;;;;;;;;;;5093655;28;20038;-68
2023/03/07 14:45:06;;;;;;;;;;;;;;;;;;5093679;28;19954;-69
2023/03/07 14:47:31;;;;;;;;;;;;;;;;;;5093603;28;19963;-68
2023/03/07 14:49:57;;;;;;;;;;;;;;;;;;5093869;28;19967;-69
2023/03/07 14:52:26;;;;;;;;;;;;;;;;;;5093600;28;20294;-68
2023/03/07 14:54:52;;;;;;;;;;;;;;;;;;5093946;28;20001;-69
2023/03/07 14:57:18;;;;;;;;;;;;;;;;;;5093609;28;19960;-69
2023/03/07 14:59:44;;;;;;;;;;;;;;;;;;5096229;28;19953;-69
2023/03/07 15:02:10;;;;;;;;;;;;;;;;;;5097979;28;19999;-68
2023/03/07 15:04:37;;;;;;;;;;;;;;;;;;5097668;28;20010;-68
2023/03/07 15:07:03;;;;;;;;;;;;;;;;;;5097875;28;19963;-68
2023/03/07 15:09:29;;;;;;;;;;;;;;;;;;5097451;28;19956;-69
2023/03/07 15:11:55;;;;;;;;;;;;;;;;;;5098115;28;19960;-69
2023/03/07 15:14:21;;;;;;;;;;;;;;;;;;5097679;28;19973;-69
2023/03/07 15:16:47;;;;;;;;;;;;;;;;;;5097737;28;20371;-69
2023/03/07 15:19:12;;;;;;;;;;;;;;;;;;5097392;28;19954;-68
2023/03/07 15:21:38;;;;;;;;;;;;;;;;;;5097589;28;20379;-69
2023/03/07 15:24:04;;;;;;;;;;;;;;;;;;5097323;28;19996;-68
2023/03/07 15:26:31;;;;;;;;;;;;;;;;;;5097283;28;20439;-68
2023/03/07 15:28:57;;;;;;;;;;;;;;;;;;5097270;28;19978;-68
2023/03/07 15:31:23;;;;;;;;;;;;;;;;;;5097129;28;19979;-69
2023/03/07 15:33:49;;;;;;;;;;;;;;;;;;5097404;28;19952;-68
2023/03/07 15:36:15;;;;;;;;;;;;;;;;;;5097096;28;19991;-69
2023/03/07 15:38:41;;;;;;;;;;;;;;;;;;5097102;28;19987;-68
2023/03/07 15:41:07;;;;;;;;;;;;;;;;;;5096956;28;20583;-68
2023/03/07 15:43:33;;;;;;;;;;;;;;;;;;5096987;28;20004;-68
2023/03/07 15:46:00;;;;;;;;;;;;;;;;;;5097509;28;19961;-68
2023/03/07 15:48:26;;;;;;;;;;;;;;;;;;5096902;28;19960;-68
2023/03/07 15:50:52;;;;;;;;;;;;;;;;;;5096725;28;19973;-69
2023/03/07 15:53:18;;;;;;;;;;;;;;;;;;5096997;28;19978;-68
2023/03/07 15:55:44;;;;;;;;;;;;;;;;;;5096949;28;19965;-68
2023/03/07 15:58:09;;;;;;;;;;;;;;;;;;5096708;28;19992;-68
2023/03/07 16:00:35;;;;;;;;;;;;;;;;;;5096636;28;20405;-69
2023/03/07 16:03:01;;;;;;;;;;;;;;;;;;5096633;28;20432;-68
2023/03/07 16:05:27;;;;;;;;;;;;;;;;;;5096538;28;19958;-69
2023/03/07 16:07:53;;;;;;;;;;;;;;;;;;5096722;28;20040;-68
2023/03/07 16:10:19;;;;;;;;;;;;;;;;;;5095844;28;20006;-68
2023/03/07 16:12:45;;;;;;;;;;;;;;;;;;5078202;28;19965;-69
2023/03/07 16:15:11;;;;;;;;;;;;;;;;;;5096393;28;19975;-69
2023/03/07 16:17:37;;;;;;;;;;;;;;;;;;5096856;28;20312;-69
2023/03/07 16:20:04;;;;;;;;;;;;;;;;;;5096549;28;19954;-69
2023/03/07 16:22:29;;;;;;;;;;;;;;;;;;5077878;28;20004;-69
2023/03/07 16:24:55;;;;;;;;;;;;;;;;;;5096193;28;19954;-69
2023/03/07 16:27:21;;;;;;;;;;;;;;;;;;5096406;28;19954;-68
2023/03/07 16:29:47;;;;;;;;;;;;;;;;;;5096334;28;19974;-69
2023/03/07 16:32:13;;;;;;;;;;;;;;;;;;5096070;28;20062;-68
2023/03/07 16:34:39;;;;;;;;;;;;;;;;;;5095997;28;20451;-68
2023/03/07 16:37:05;;;;;;;;;;;;;;;;;;5096475;28;20279;-68